Time;durP1;ratioP1;P1;durP2;ratioP2;P2;SDS_P1;SDS_P2;PMS_P1;PMS_P2;Temp;Humidity;BMP_temperature;BMP_pressure;BME280_temperature;BME280_humidity;BME280_pressure;Samples;Min_cycle;Max_cycle;Signal;HPM_P1;HPM_P2
2021/03/16 00:02:24;;;;;;;1.98;1.83;;;9.40;99.90;;;;;;5124812;28;20312;-36
2021/03/16 00:04:54;;;;;;;2.35;2.10;;;9.20;99.90;;;;;;5124769;28;20200;-37
2021/03/16 00:07:24;;;;;;;1.38;1.10;;;8.90;99.90;;;;;;5124790;28;20238;-36
2021/03/16 00:09:54;;;;;;;4.03;1.10;;;8.70;99.90;;;;;;5124450;28;20201;-36
2021/03/16 00:12:24;;;;;;;1.20;0.70;;;8.50;99.90;;;;;;5122455;28;20192;-36
2021/03/16 00:14:56;;;;;;;2.85;1.10;;;8.30;99.90;;;;;;5124107;28;20248;-36
2021/03/16 00:17:26;;;;;;;3.30;1.48;;;8.10;99.90;;;;;;5105368;28;20200;-36
2021/03/16 00:19:56;;;;;;;1.50;0.80;;;7.90;99.90;;;;;;5120089;28;20223;-36
2021/03/16 00:22:26;;;;;;;1.27;1.00;;;7.70;99.90;;;;;;5122400;28;20281;-35
2021/03/16 00:25:14;;;;;;;2.08;1.00;;;7.50;99.90;;;;;;5120667;28;20269;-36
2021/03/16 00:27:46;;;;;;;0.90;0.90;;;7.40;99.90;;;;;;5122855;28;20620;-36
2021/03/16 00:30:18;;;;;;;1.88;1.08;;;7.40;99.90;;;;;;5123153;28;20200;-36
2021/03/16 00:32:48;;;;;;;1.85;1.00;;;7.30;99.90;;;;;;5124480;28;20207;-36
2021/03/16 00:35:18;;;;;;;1.20;1.17;;;7.30;99.90;;;;;;5123208;28;20196;-36
2021/03/16 00:37:48;;;;;;;1.75;1.00;;;7.20;99.90;;;;;;5123372;28;20192;-35
2021/03/16 00:40:19;;;;;;;1.17;0.85;;;7.30;99.90;;;;;;5116209;28;20236;-35
2021/03/16 00:42:49;;;;;;;1.98;1.10;;;7.30;99.90;;;;;;5116325;28;20265;-35
2021/03/16 00:45:21;;;;;;;1.50;0.85;;;7.50;99.90;;;;;;5123863;28;20203;-36
2021/03/16 00:47:51;;;;;;;1.45;0.85;;;7.60;99.90;;;;;;5123266;28;20239;-36
2021/03/16 00:50:21;;;;;;;0.95;0.85;;;7.70;99.90;;;;;;5122619;28;20223;-36
2021/03/16 00:52:56;;;;;;;1.27;1.17;;;7.80;99.90;;;;;;5122067;28;20272;-35
2021/03/16 00:55:37;;;;;;;1.38;1.27;;;7.90;99.90;;;;;;5123403;28;20196;-34
2021/03/16 00:58:07;;;;;;;3.90;1.75;;;7.80;99.90;;;;;;5122194;28;20188;-36
2021/03/16 01:00:39;;;;;;;1.63;1.52;;;7.90;99.90;;;;;;5120071;28;20226;-35
2021/03/16 01:03:09;;;;;;;1.65;1.52;;;8.10;99.90;;;;;;5121047;28;20596;-35
2021/03/16 01:05:40;;;;;;;2.40;2.20;;;8.10;99.90;;;;;;5122474;28;20212;-35
2021/03/16 01:08:10;;;;;;;3.95;2.33;;;8.20;99.90;;;;;;5121629;28;20205;-35
2021/03/16 01:10:40;;;;;;;4.75;2.10;;;8.20;99.90;;;;;;5122260;28;20196;-35
2021/03/16 01:13:10;;;;;;;3.03;1.83;;;8.30;99.90;;;;;;5122806;28;20264;-36
2021/03/16 01:15:42;;;;;;;3.50;1.90;;;8.20;99.90;;;;;;5123548;28;20226;-36
2021/03/16 01:18:12;;;;;;;2.75;2.00;;;8.10;99.90;;;;;;5121707;28;20223;-36
2021/03/16 01:20:43;;;;;;;4.07;1.85;;;8.10;99.90;;;;;;5122175;28;20228;-36
2021/03/16 01:23:13;;;;;;;3.38;1.80;;;8.10;99.90;;;;;;5118982;28;20192;-36
2021/03/16 01:26:02;;;;;;;2.03;1.70;;;8.00;99.90;;;;;;5123502;28;20705;-36
2021/03/16 01:28:32;;;;;;;1.85;1.45;;;7.80;99.90;;;;;;5122895;28;20572;-36
2021/03/16 01:31:04;;;;;;;2.95;1.95;;;7.90;99.90;;;;;;5122384;28;20200;-36
2021/03/16 01:33:35;;;;;;;2.00;1.70;;;7.80;99.90;;;;;;5123116;28;20315;-36
2021/03/16 01:36:07;;;;;;;4.45;2.00;;;7.90;99.90;;;;;;5122970;28;20279;-36
2021/03/16 01:38:38;;;;;;;2.95;1.73;;;7.90;99.90;;;;;;5122507;28;20200;-36
2021/03/16 01:41:10;;;;;;;3.67;1.95;;;7.80;99.90;;;;;;5122548;28;20232;-36
2021/03/16 01:43:40;;;;;;;5.50;4.78;;;7.80;99.90;;;;;;5122337;28;20229;-36
2021/03/16 01:46:11;;;;;;;9.40;8.50;;;7.80;99.90;;;;;;5123072;28;20291;-36
2021/03/16 01:48:42;;;;;;;3.95;3.55;;;7.80;99.90;;;;;;5123354;28;20655;-36
2021/03/16 01:51:12;;;;;;;3.75;3.10;;;7.80;99.90;;;;;;5122543;28;20234;-36
2021/03/16 01:53:43;;;;;;;2.83;2.63;;;7.70;99.90;;;;;;5121190;28;20196;-36
2021/03/16 01:56:26;;;;;;;4.13;2.50;;;7.50;99.90;;;;;;5103346;28;20204;-36
2021/03/16 01:58:57;;;;;;;2.63;2.40;;;7.40;99.90;;;;;;5123369;28;20196;-36
2021/03/16 02:01:28;;;;;;;3.78;2.45;;;7.30;99.90;;;;;;5124314;28;20224;-36
2021/03/16 02:03:59;;;;;;;2.90;2.58;;;7.20;99.90;;;;;;5127408;28;20272;-36
2021/03/16 02:06:37;;;;;;;3.40;2.67;;;7.10;99.90;;;;;;5125954;28;20208;-36
2021/03/16 02:09:15;;;;;;;2.40;2.13;;;7.00;99.90;;;;;;5124166;28;20225;-36
2021/03/16 02:11:50;;;;;;;5.57;2.53;;;6.90;99.90;;;;;;5117174;28;20200;-35
2021/03/16 02:14:25;;;;;;;4.03;3.03;;;6.80;99.90;;;;;;5124429;28;20241;-35
2021/03/16 02:17:04;;;;;;;5.07;3.20;;;6.80;99.90;;;;;;5122432;28;20188;-36
2021/03/16 02:20:06;;;;;;;4.10;2.80;;;6.70;99.90;;;;;;5126042;28;20323;-36
2021/03/16 02:22:39;;;;;;;5.78;3.47;;;6.50;99.90;;;;;;5124218;28;20308;-35
2021/03/16 02:25:29;;;;;;;3.95;3.30;;;6.50;99.90;;;;;;5125637;28;20200;-35
2021/03/16 02:28:18;;;;;;;4.78;3.05;;;6.40;99.90;;;;;;5124644;28;20204;-36
2021/03/16 02:30:50;;;;;;;6.80;3.17;;;6.30;99.90;;;;;;5126577;28;20742;-35
2021/03/16 02:33:25;;;;;;;3.40;3.13;;;6.30;99.90;;;;;;5125853;28;20200;-35
2021/03/16 02:35:56;;;;;;;3.65;3.20;;;6.30;99.90;;;;;;5126336;28;20196;-34
2021/03/16 02:38:32;;;;;;;5.38;3.53;;;6.30;99.90;;;;;;5126286;28;20332;-35
2021/03/16 02:41:04;;;;;;;3.53;3.00;;;6.30;99.90;;;;;;5126859;28;20211;-35
2021/03/16 02:43:34;;;;;;;4.18;3.17;;;6.30;99.90;;;;;;5121846;28;20196;-35
2021/03/16 02:46:07;;;;;;;3.70;3.40;;;6.30;99.90;;;;;;5126236;28;20200;-35
2021/03/16 02:48:39;;;;;;;4.15;3.72;;;6.40;99.90;;;;;;5126380;28;20196;-34
2021/03/16 02:51:11;;;;;;;4.10;3.67;;;6.40;99.90;;;;;;5125140;28;20204;-36
2021/03/16 02:53:43;;;;;;;3.60;3.30;;;6.40;99.90;;;;;;5125002;28;20519;-35
2021/03/16 02:56:15;;;;;;;4.00;3.10;;;6.50;99.90;;;;;;5120228;28;20278;-35
2021/03/16 02:58:48;;;;;;;3.78;2.72;;;6.50;99.90;;;;;;5119432;28;20222;-35
2021/03/16 03:01:22;;;;;;;3.45;3.15;;;6.40;99.90;;;;;;5124924;28;20223;-35
2021/03/16 03:03:54;;;;;;;5.90;3.88;;;6.40;99.90;;;;;;5119568;28;20195;-36
2021/03/16 03:06:24;;;;;;;6.10;3.53;;;6.40;99.90;;;;;;5124047;28;20199;-35
2021/03/16 03:08:54;;;;;;;5.65;3.30;;;6.50;99.90;;;;;;5124759;28;20274;-36
2021/03/16 03:11:24;;;;;;;3.45;3.20;;;6.50;99.90;;;;;;5123674;28;20204;-36
2021/03/16 03:13:54;;;;;;;4.80;4.13;;;6.50;99.90;;;;;;5124543;28;20340;-36
2021/03/16 03:16:26;;;;;;;5.38;4.40;;;6.40;99.90;;;;;;5120744;28;20660;-36
2021/03/16 03:18:56;;;;;;;5.30;4.40;;;6.40;99.90;;;;;;5124064;28;20255;-35
2021/03/16 03:21:31;;;;;;;6.70;4.10;;;6.30;99.90;;;;;;5124804;28;20230;-36
2021/03/16 03:24:07;;;;;;;4.32;3.92;;;6.30;99.90;;;;;;5124068;28;20283;-35
2021/03/16 03:26:43;;;;;;;6.75;4.78;;;6.30;99.90;;;;;;5121508;28;20203;-36
2021/03/16 03:29:14;;;;;;;5.78;4.22;;;6.20;99.90;;;;;;5121445;28;20204;-35
2021/03/16 03:31:48;;;;;;;5.15;4.25;;;6.20;99.90;;;;;;5124732;28;20264;-35
2021/03/16 03:34:20;;;;;;;5.72;5.03;;;6.10;99.90;;;;;;5121835;28;20707;-36
2021/03/16 03:36:55;;;;;;;5.40;4.80;;;6.10;99.90;;;;;;5124234;28;20196;-36
2021/03/16 03:39:27;;;;;;;5.50;5.00;;;6.10;99.90;;;;;;5124624;28;20235;-36
2021/03/16 03:41:59;;;;;;;5.28;4.78;;;6.10;99.90;;;;;;5123736;28;20254;-36
2021/03/16 03:44:31;;;;;;;6.07;5.30;;;6.10;99.90;;;;;;5125060;28;20215;-35
2021/03/16 03:47:04;;;;;;;5.50;4.95;;;6.00;99.90;;;;;;5124475;28;20208;-37
2021/03/16 03:49:36;;;;;;;8.70;5.35;;;6.00;99.90;;;;;;5125123;28;20212;-35
2021/03/16 03:52:08;;;;;;;6.60;5.13;;;6.00;99.90;;;;;;5112413;28;20208;-36
2021/03/16 03:54:40;;;;;;;6.80;5.35;;;6.00;99.90;;;;;;5124822;28;20315;-36
2021/03/16 03:57:11;;;;;;;5.80;5.10;;;6.00;99.90;;;;;;5123851;28;20200;-35
2021/03/16 03:59:43;;;;;;;7.22;5.20;;;6.00;99.90;;;;;;5123391;28;20208;-36
2021/03/16 04:02:15;;;;;;;6.65;5.03;;;5.90;99.90;;;;;;5124599;28;20238;-36
2021/03/16 04:04:46;;;;;;;6.85;5.47;;;5.80;99.90;;;;;;5123827;28;20221;-35
2021/03/16 04:07:16;;;;;;;5.70;4.82;;;5.70;99.90;;;;;;5124234;28;20273;-36
2021/03/16 04:09:46;;;;;;;9.35;5.88;;;5.60;99.90;;;;;;5124317;28;20196;-36
2021/03/16 04:12:16;;;;;;;9.45;5.30;;;5.60;99.90;;;;;;5123760;28;20264;-36
2021/03/16 04:14:47;;;;;;;6.10;5.40;;;5.50;99.90;;;;;;5121289;28;20207;-35
2021/03/16 04:17:18;;;;;;;8.63;6.63;;;5.50;99.90;;;;;;5123907;28;20201;-36
2021/03/16 04:19:50;;;;;;;6.32;5.72;;;5.40;99.90;;;;;;5124475;28;20203;-36
2021/03/16 04:22:24;;;;;;;7.65;6.95;;;5.40;99.90;;;;;;5123772;28;20249;-35
2021/03/16 04:24:56;;;;;;;7.50;6.80;;;5.30;99.90;;;;;;5122488;28;20228;-35
2021/03/16 04:27:27;;;;;;;9.00;6.63;;;5.20;99.90;;;;;;5123512;28;20230;-35
2021/03/16 04:29:57;;;;;;;9.73;7.95;;;5.20;99.90;;;;;;5124202;28;20204;-35
2021/03/16 04:32:28;;;;;;;7.63;6.40;;;5.10;99.90;;;;;;5123770;28;20684;-34
2021/03/16 04:34:58;;;;;;;7.85;7.15;;;5.00;99.90;;;;;;5123271;28;20196;-34
2021/03/16 04:37:28;;;;;;;8.27;7.45;;;5.00;99.90;;;;;;5123105;28;20257;-34
2021/03/16 04:39:59;;;;;;;8.45;7.65;;;4.90;99.90;;;;;;5123809;28;20250;-35
2021/03/16 04:42:29;;;;;;;8.35;7.65;;;4.80;99.90;;;;;;5123020;28;20380;-35
2021/03/16 04:44:59;;;;;;;11.50;8.57;;;4.70;99.90;;;;;;5123829;28;20219;-35
2021/03/16 04:47:30;;;;;;;10.70;7.90;;;4.70;99.90;;;;;;5123501;28;20237;-35
2021/03/16 04:50:00;;;;;;;10.88;8.50;;;4.70;99.90;;;;;;5124316;28;20202;-34
2021/03/16 04:52:30;;;;;;;9.10;8.20;;;4.60;99.90;;;;;;5123962;28;20219;-34
2021/03/16 04:55:00;;;;;;;9.85;7.93;;;4.60;99.90;;;;;;5123963;28;20204;-34
2021/03/16 04:57:30;;;;;;;11.07;8.00;;;4.50;99.90;;;;;;5122916;28;20276;-34
2021/03/16 05:00:00;;;;;;;10.15;8.63;;;4.50;99.90;;;;;;5124021;28;20242;-34
2021/03/16 05:02:32;;;;;;;8.50;7.57;;;4.40;99.90;;;;;;5119859;28;21388;-35
2021/03/16 05:05:02;;;;;;;9.82;8.18;;;4.40;99.90;;;;;;5119839;28;20204;-35
2021/03/16 05:07:32;;;;;;;9.48;8.38;;;4.30;99.90;;;;;;5124088;28;20233;-35
2021/03/16 05:10:02;;;;;;;8.52;7.43;;;4.30;99.90;;;;;;5123858;28;20261;-36
2021/03/16 05:12:32;;;;;;;8.38;7.57;;;4.30;99.90;;;;;;5122491;28;20226;-35
2021/03/16 05:15:02;;;;;;;9.43;8.00;;;4.20;99.90;;;;;;5118724;28;20230;-35
2021/03/16 05:17:33;;;;;;;10.38;8.48;;;4.10;99.90;;;;;;5121684;28;20260;-34
2021/03/16 05:20:04;;;;;;;8.55;7.85;;;4.00;99.90;;;;;;5124227;28;20237;-34
2021/03/16 05:22:34;;;;;;;9.40;8.00;;;4.00;99.90;;;;;;5123830;27;20239;-35
2021/03/16 05:25:07;;;;;;;9.55;8.73;;;3.90;99.90;;;;;;5122707;28;20233;-35
2021/03/16 05:27:37;;;;;;;12.73;8.90;;;3.80;99.90;;;;;;5116339;28;20295;-34
2021/03/16 05:30:08;;;;;;;9.82;8.65;;;3.70;99.90;;;;;;5121476;27;20211;-34
2021/03/16 05:32:39;;;;;;;9.93;7.78;;;3.70;99.90;;;;;;5120346;28;20195;-34
2021/03/16 05:35:11;;;;;;;9.40;8.30;;;3.70;99.90;;;;;;5123572;28;20229;-35
2021/03/16 05:37:41;;;;;;;8.60;7.80;;;3.80;99.90;;;;;;5114976;28;20207;-35
2021/03/16 05:40:13;;;;;;;9.60;8.27;;;3.70;99.90;;;;;;5122865;28;20228;-34
2021/03/16 05:42:43;;;;;;;10.20;8.70;;;3.70;99.90;;;;;;5116204;28;20204;-36
2021/03/16 05:45:15;;;;;;;9.10;8.20;;;3.70;99.90;;;;;;5123087;28;20200;-35
2021/03/16 05:47:49;;;;;;;9.48;8.48;;;3.60;99.90;;;;;;5122492;28;20199;-35
2021/03/16 05:50:20;;;;;;;9.63;8.55;;;3.60;99.90;;;;;;5123566;28;20248;-36
2021/03/16 05:52:54;;;;;;;11.50;8.80;;;3.70;99.90;;;;;;5122863;28;20204;-36
2021/03/16 05:55:25;;;;;;;10.00;9.00;;;3.80;99.90;;;;;;5122417;28;20234;-35
2021/03/16 05:57:55;;;;;;;12.85;10.15;;;3.90;99.90;;;;;;5122075;28;20564;-35
2021/03/16 06:00:26;;;;;;;11.27;10.07;;;3.90;99.90;;;;;;5122703;28;20204;-35
2021/03/16 06:02:57;;;;;;;11.88;10.65;;;3.90;99.90;;;;;;5119904;28;20288;-35
2021/03/16 06:05:28;;;;;;;11.30;9.32;;;3.90;99.90;;;;;;5122967;28;20196;-35
2021/03/16 06:07:58;;;;;;;10.65;9.60;;;4.00;99.90;;;;;;5122177;28;20261;-35
2021/03/16 06:10:28;;;;;;;15.27;10.52;;;4.10;99.90;;;;;;5123037;28;20233;-36
2021/03/16 06:13:08;;;;;;;13.63;11.00;;;4.10;99.90;;;;;;5121935;28;20237;-35
2021/03/16 06:15:38;;;;;;;12.75;11.45;;;4.10;99.90;;;;;;5121201;28;20214;-34
2021/03/16 06:18:12;;;;;;;11.73;10.35;;;4.10;99.90;;;;;;5122836;28;20259;-35
2021/03/16 06:20:42;;;;;;;11.80;10.60;;;4.20;99.90;;;;;;5123310;28;20671;-35
2021/03/16 06:23:13;;;;;;;13.35;10.40;;;4.20;99.90;;;;;;5122410;28;20237;-35
2021/03/16 06:25:44;;;;;;;14.43;11.48;;;4.20;99.90;;;;;;5122102;28;20208;-35
2021/03/16 06:28:16;;;;;;;12.07;10.88;;;4.20;99.90;;;;;;5121746;28;20206;-34
2021/03/16 06:30:50;;;;;;;13.10;11.90;;;4.20;99.90;;;;;;5122998;28;20207;-34
2021/03/16 06:33:24;;;;;;;13.57;12.38;;;4.20;99.90;;;;;;5122732;28;20287;-35
2021/03/16 06:36:01;;;;;;;13.50;11.80;;;4.20;99.90;;;;;;5122700;28;20207;-35
2021/03/16 06:38:32;;;;;;;16.42;11.73;;;4.10;99.90;;;;;;5122329;28;20203;-34
2021/03/16 06:41:10;;;;;;;13.65;12.35;;;4.10;99.90;;;;;;5122739;28;20235;-35
2021/03/16 06:43:41;;;;;;;15.93;14.30;;;4.00;99.90;;;;;;5119138;28;20295;-34
2021/03/16 06:46:11;;;;;;;16.45;13.85;;;3.90;99.90;;;;;;5121224;28;20220;-34
2021/03/16 06:48:42;;;;;;;20.20;14.15;;;3.80;99.90;;;;;;5126601;28;20642;-34
2021/03/16 06:51:15;;;;;;;15.45;13.52;;;3.70;99.90;;;;;;5126712;28;20200;-34
2021/03/16 06:53:45;;;;;;;15.60;13.38;;;3.70;99.90;;;;;;5126215;28;20211;-35
2021/03/16 06:56:28;;;;;;;16.40;14.80;;;3.60;99.90;;;;;;5124645;28;20276;-35
2021/03/16 06:58:59;;;;;;;14.52;13.13;;;3.60;99.90;;;;;;5126278;28;20207;-35
2021/03/16 07:01:32;;;;;;;16.27;13.57;;;3.50;99.90;;;;;;5125787;28;20280;-35
2021/03/16 07:04:13;;;;;;;21.30;15.60;;;3.40;99.90;;;;;;5126492;28;20192;-34
2021/03/16 07:06:44;;;;;;;16.05;14.38;;;3.30;99.90;;;;;;5125858;28;20228;-34
2021/03/16 07:09:16;;;;;;;15.15;13.55;;;3.30;99.90;;;;;;5125989;28;20200;-34
2021/03/16 07:11:49;;;;;;;16.00;14.50;;;3.20;99.90;;;;;;5125216;28;20200;-34
2021/03/16 07:14:20;;;;;;;18.23;14.18;;;3.20;99.90;;;;;;5126006;28;20211;-34
2021/03/16 07:16:51;;;;;;;16.23;14.50;;;3.10;99.90;;;;;;5125237;28;20566;-34
2021/03/16 07:19:24;;;;;;;16.30;14.48;;;3.10;99.90;;;;;;5125957;28;20245;-35
2021/03/16 07:21:55;;;;;;;17.73;14.55;;;3.00;99.90;;;;;;5126348;28;20226;-34
2021/03/16 07:24:28;;;;;;;16.17;14.57;;;3.00;99.90;;;;;;5125459;28;20215;-35
2021/03/16 07:26:59;;;;;;;15.10;13.60;;;2.90;99.90;;;;;;5124094;28;20207;-34
2021/03/16 07:29:29;;;;;;;16.83;15.13;;;2.80;99.90;;;;;;5125734;28;20212;-34
2021/03/16 07:32:04;;;;;;;15.80;14.30;;;2.80;99.90;;;;;;5125094;28;20229;-34
2021/03/16 07:34:37;;;;;;;17.20;14.55;;;2.80;99.90;;;;;;5125970;28;20573;-35
2021/03/16 07:37:08;;;;;;;15.90;14.30;;;2.70;99.90;;;;;;5124232;28;20200;-34
2021/03/16 07:39:39;;;;;;;16.33;14.60;;;2.80;99.90;;;;;;5110876;28;20232;-34
2021/03/16 07:42:12;;;;;;;16.55;14.85;;;2.80;99.90;;;;;;5124237;28;20251;-34
2021/03/16 07:44:46;;;;;;;17.25;15.35;;;2.80;99.90;;;;;;5125743;28;20209;-34
2021/03/16 07:47:17;;;;;;;16.60;14.70;;;2.80;99.90;;;;;;5123886;28;20208;-34
2021/03/16 07:49:49;;;;;;;19.65;15.35;;;2.70;99.90;;;;;;5125767;28;20681;-33
2021/03/16 07:52:19;;;;;;;17.40;14.93;;;2.60;99.90;;;;;;5124928;28;20275;-34
2021/03/16 07:54:52;;;;;;;17.17;14.52;;;2.60;99.90;;;;;;5124777;28;20212;-35
2021/03/16 07:57:27;;;;;;;15.80;13.73;;;2.50;99.90;;;;;;5123538;28;20574;-35
2021/03/16 08:00:02;;;;;;;15.70;13.90;;;2.50;99.90;;;;;;5124406;28;20200;-36
2021/03/16 08:02:33;;;;;;;15.73;14.23;;;2.40;99.90;;;;;;5124419;28;20222;-35
2021/03/16 08:05:15;;;;;;;16.00;13.77;;;2.40;99.90;;;;;;5125383;28;20339;-35
2021/03/16 08:07:45;;;;;;;16.70;14.93;;;2.40;99.90;;;;;;5123543;28;20200;-35
2021/03/16 08:10:26;;;;;;;16.15;14.48;;;2.30;99.90;;;;;;5125418;28;20673;-35
2021/03/16 08:13:04;;;;;;;15.45;13.52;;;2.30;99.90;;;;;;5124095;28;20212;-35
2021/03/16 08:15:43;;;;;;;14.82;13.18;;;2.30;99.90;;;;;;5123597;28;20204;-36
2021/03/16 08:18:14;;;;;;;15.98;13.38;;;2.30;99.90;;;;;;5124177;28;20204;-35
2021/03/16 08:20:47;;;;;;;16.38;14.30;;;2.30;99.90;;;;;;5124648;28;20203;-35
2021/03/16 08:23:17;;;;;;;14.55;13.15;;;2.20;99.90;;;;;;5124573;28;20200;-35
2021/03/16 08:25:49;;;;;;;16.90;13.30;;;2.10;99.90;;;;;;5124790;28;20204;-35
2021/03/16 08:28:19;;;;;;;15.10;12.82;;;2.10;99.90;;;;;;5123267;28;20212;-35
2021/03/16 08:30:50;;;;;;;14.02;12.68;;;2.00;99.90;;;;;;5124361;28;20648;-36
2021/03/16 08:33:22;;;;;;;14.65;12.88;;;2.10;99.90;;;;;;5124129;28;20204;-35
2021/03/16 08:35:54;;;;;;;14.68;12.20;;;2.10;99.90;;;;;;5124441;28;20211;-35
2021/03/16 08:38:27;;;;;;;14.50;13.05;;;2.00;99.90;;;;;;5123684;28;20196;-34
2021/03/16 08:41:16;;;;;;;13.63;12.35;;;2.00;99.90;;;;;;5124562;28;20635;-35
2021/03/16 08:43:50;;;;;;;13.98;12.02;;;2.10;99.90;;;;;;5121625;28;20304;-35
2021/03/16 08:46:31;;;;;;;15.10;13.60;;;2.00;99.90;;;;;;5123858;28;20200;-35
2021/03/16 08:49:01;;;;;;;16.30;12.35;;;2.00;99.90;;;;;;5124027;28;20200;-35
2021/03/16 08:51:33;;;;;;;13.32;10.95;;;1.90;99.90;;;;;;5124116;28;20235;-35
2021/03/16 08:54:03;;;;;;;13.75;12.23;;;1.80;99.90;;;;;;5123913;28;20199;-35
2021/03/16 08:56:34;;;;;;;14.07;11.98;;;1.80;99.90;;;;;;5123129;28;20211;-35
2021/03/16 08:59:06;;;;;;;14.75;12.00;;;1.70;99.90;;;;;;5124212;28;20196;-36
2021/03/16 09:01:53;;;;;;;16.35;12.85;;;1.70;99.90;;;;;;5117578;28;20250;-36
2021/03/16 09:04:23;;;;;;;13.20;11.82;;;1.70;99.90;;;;;;5124048;28;20207;-36
2021/03/16 09:06:56;;;;;;;13.07;11.35;;;1.60;99.90;;;;;;5123078;28;20307;-35
2021/03/16 09:09:27;;;;;;;13.23;11.63;;;1.50;99.90;;;;;;5123199;28;20200;-36
2021/03/16 09:11:58;;;;;;;12.65;11.35;;;1.50;99.90;;;;;;5122891;28;20200;-35
2021/03/16 09:14:28;;;;;;;15.88;12.00;;;1.50;99.90;;;;;;5123860;28;20188;-35
2021/03/16 09:16:58;;;;;;;13.65;12.35;;;1.40;99.90;;;;;;5123472;28;20211;-36
2021/03/16 09:19:32;;;;;;;13.32;10.82;;;1.30;99.90;;;;;;5121788;28;20303;-35
2021/03/16 09:22:10;;;;;;;14.25;12.05;;;1.40;99.90;;;;;;5123404;28;20283;-36
2021/03/16 09:24:44;;;;;;;14.10;12.60;;;1.40;99.90;;;;;;5115806;28;20203;-36
2021/03/16 09:27:16;;;;;;;13.80;12.50;;;1.40;99.90;;;;;;5122128;28;20284;-35
2021/03/16 09:29:46;;;;;;;15.07;13.25;;;1.40;99.90;;;;;;5124526;28;20200;-36
2021/03/16 09:32:18;;;;;;;13.38;12.00;;;1.40;99.90;;;;;;5118697;28;20214;-36
2021/03/16 09:34:49;;;;;;;13.63;12.23;;;1.40;99.90;;;;;;5116985;28;20203;-35
2021/03/16 09:37:20;;;;;;;14.77;12.63;;;1.40;99.90;;;;;;5122421;28;20204;-36
2021/03/16 09:39:56;;;;;;;13.40;11.88;;;1.40;99.90;;;;;;5123421;28;20227;-36
2021/03/16 09:42:34;;;;;;;14.60;11.32;;;1.40;99.90;;;;;;5122781;28;20215;-35
2021/03/16 09:45:06;;;;;;;15.15;12.90;;;1.30;99.90;;;;;;5123496;28;20253;-36
2021/03/16 09:47:41;;;;;;;13.13;11.68;;;1.30;99.90;;;;;;5111981;28;20267;-36
2021/03/16 09:50:14;;;;;;;13.35;11.95;;;1.40;99.90;;;;;;5123894;28;20218;-36
2021/03/16 09:52:47;;;;;;;14.10;11.82;;;1.30;99.90;;;;;;5123784;28;20587;-36
2021/03/16 09:55:19;;;;;;;13.80;10.95;;;1.20;99.90;;;;;;5123004;28;20199;-35
2021/03/16 09:57:49;;;;;;;15.73;12.77;;;1.10;99.90;;;;;;5122403;28;20203;-36
2021/03/16 10:00:22;;;;;;;12.40;11.10;;;1.10;99.90;;;;;;5123522;28;20204;-35
2021/03/16 10:03:03;;;;;;;13.52;12.18;;;1.10;99.90;;;;;;5123827;28;20235;-36
2021/03/16 10:05:34;;;;;;;14.48;11.55;;;1.10;99.90;;;;;;5122962;28;20203;-36
2021/03/16 10:08:05;;;;;;;14.23;11.20;;;1.20;99.90;;;;;;5121986;28;20203;-36
2021/03/16 10:10:37;;;;;;;12.10;10.80;;;1.20;99.90;;;;;;5123211;28;20253;-36
2021/03/16 10:13:10;;;;;;;13.18;11.52;;;1.10;99.90;;;;;;5122308;28;20203;-36
2021/03/16 10:15:41;;;;;;;13.15;10.98;;;1.00;99.90;;;;;;5117899;28;20207;-35
2021/03/16 10:18:13;;;;;;;13.48;11.95;;;1.00;99.90;;;;;;5122822;28;20218;-36
2021/03/16 10:20:46;;;;;;;12.18;10.88;;;1.00;99.90;;;;;;5123570;28;20208;-35
2021/03/16 10:23:20;;;;;;;11.90;10.65;;;1.00;99.90;;;;;;5126616;28;20255;-36
2021/03/16 10:26:04;;;;;;;11.90;10.70;;;1.00;99.90;;;;;;5127016;28;20208;-35
2021/03/16 10:28:36;;;;;;;12.32;11.02;;;0.90;99.90;;;;;;5125460;28;20210;-35
2021/03/16 10:31:17;;;;;;;12.70;11.40;;;0.90;99.90;;;;;;5118693;28;20199;-35
2021/03/16 10:33:49;;;;;;;14.48;11.45;;;0.90;99.90;;;;;;5125483;28;20216;-36
2021/03/16 10:36:21;;;;;;;14.77;11.45;;;0.80;99.90;;;;;;5126904;28;20287;-35
2021/03/16 10:38:54;;;;;;;12.75;10.85;;;0.80;99.90;;;;;;5126053;28;20227;-35
2021/03/16 10:41:24;;;;;;;15.32;11.40;;;0.80;99.90;;;;;;5125858;28;20220;-35
2021/03/16 10:43:54;;;;;;;14.43;12.93;;;0.80;99.90;;;;;;5126911;28;20257;-35
2021/03/16 10:46:24;;;;;;;13.68;11.13;;;0.80;99.90;;;;;;5126592;28;20188;-35
2021/03/16 10:48:54;;;;;;;15.07;11.80;;;0.80;99.90;;;;;;5126535;28;20196;-35
2021/03/16 10:51:24;;;;;;;15.13;12.70;;;0.80;99.90;;;;;;5126510;28;20233;-35
2021/03/16 10:53:55;;;;;;;14.20;11.75;;;0.80;99.90;;;;;;5126065;28;20200;-35
2021/03/16 10:56:26;;;;;;;14.45;12.15;;;0.80;99.90;;;;;;5125604;28;20211;-35
2021/03/16 10:58:56;;;;;;;13.55;11.18;;;0.80;99.90;;;;;;5126430;28;20214;-36
2021/03/16 11:01:26;;;;;;;15.52;12.20;;;0.70;99.90;;;;;;5125873;28;20245;-35
2021/03/16 11:03:56;;;;;;;12.57;11.30;;;0.70;99.90;;;;;;5127170;28;20184;-35
2021/03/16 11:06:26;;;;;;;13.35;11.77;;;0.70;99.90;;;;;;5120980;28;20239;-35
2021/03/16 11:08:57;;;;;;;13.35;11.95;;;0.70;99.90;;;;;;5125523;28;20274;-34
2021/03/16 11:11:28;;;;;;;14.35;12.23;;;0.70;99.90;;;;;;5125051;28;20285;-36
2021/03/16 11:13:58;;;;;;;13.60;10.95;;;0.70;99.90;;;;;;5126480;28;20259;-35
2021/03/16 11:16:28;;;;;;;14.32;12.93;;;0.70;99.90;;;;;;5126286;28;20429;-36
2021/03/16 11:18:58;;;;;;;14.02;12.70;;;0.70;99.90;;;;;;5125765;28;20256;-36
2021/03/16 11:21:28;;;;;;;13.93;12.20;;;0.60;99.90;;;;;;5125943;28;20204;-36
2021/03/16 11:23:59;;;;;;;15.43;13.40;;;0.60;99.90;;;;;;5126292;28;20200;-35
2021/03/16 11:26:29;;;;;;;17.08;12.85;;;0.70;99.90;;;;;;5125041;28;20237;-36
2021/03/16 11:29:00;;;;;;;14.68;11.98;;;0.60;99.90;;;;;;5124881;28;20196;-35
2021/03/16 11:31:31;;;;;;;12.98;11.40;;;0.70;99.90;;;;;;5125608;28;20200;-35
2021/03/16 11:34:01;;;;;;;12.95;11.40;;;0.70;99.90;;;;;;5125580;27;20207;-35
2021/03/16 11:36:32;;;;;;;14.52;11.18;;;0.70;99.90;;;;;;5125350;28;20192;-35
2021/03/16 11:39:04;;;;;;;14.50;13.07;;;0.80;99.90;;;;;;5124192;28;20228;-36
2021/03/16 11:41:34;;;;;;;16.52;12.35;;;0.80;99.90;;;;;;5124165;28;20224;-35
2021/03/16 11:44:05;;;;;;;14.40;12.93;;;0.90;99.90;;;;;;5125156;28;20196;-35
2021/03/16 11:46:35;;;;;;;17.23;12.30;;;0.90;99.90;;;;;;5125737;28;20335;-35
2021/03/16 11:49:06;;;;;;;14.55;12.38;;;1.00;99.90;;;;;;5124850;28;20257;-35
2021/03/16 11:51:36;;;;;;;14.93;13.32;;;1.00;99.90;;;;;;5125557;28;20213;-36
2021/03/16 11:54:07;;;;;;;15.70;14.10;;;1.10;99.90;;;;;;5125211;28;20207;-36
2021/03/16 11:56:37;;;;;;;14.05;12.63;;;1.20;99.90;;;;;;5123916;28;20256;-35
2021/03/16 11:59:07;;;;;;;16.42;12.85;;;1.20;99.90;;;;;;5124307;28;20202;-36
2021/03/16 12:01:38;;;;;;;18.40;13.50;;;1.20;99.90;;;;;;5125442;28;20212;-35
2021/03/16 12:04:18;;;;;;;16.20;13.43;;;1.30;99.90;;;;;;5124933;28;20211;-35
2021/03/16 12:06:48;;;;;;;17.98;13.43;;;1.30;99.90;;;;;;5124689;28;20204;-36
2021/03/16 12:09:19;;;;;;;13.80;12.40;;;1.30;99.90;;;;;;5123268;28;20196;-35
2021/03/16 12:11:49;;;;;;;16.38;12.82;;;1.40;99.90;;;;;;5124171;28;20204;-35
2021/03/16 12:14:19;;;;;;;15.13;13.48;;;1.30;99.90;;;;;;5125201;28;20196;-35
2021/03/16 12:16:49;;;;;;;14.98;13.40;;;1.20;99.90;;;;;;5125441;28;20200;-35
2021/03/16 12:19:21;;;;;;;17.58;13.90;;;1.30;99.90;;;;;;5124154;28;20196;-35
2021/03/16 12:21:51;;;;;;;15.68;12.63;;;1.30;99.90;;;;;;5124755;28;20739;-36
2021/03/16 12:24:24;;;;;;;14.65;12.95;;;1.30;99.90;;;;;;5122822;28;20226;-36
2021/03/16 12:26:55;;;;;;;16.38;14.73;;;1.30;99.90;;;;;;5123909;28;20221;-35
2021/03/16 12:29:27;;;;;;;15.90;14.18;;;1.30;99.90;;;;;;5124156;28;20181;-35
2021/03/16 12:31:57;;;;;;;15.20;13.13;;;1.20;99.90;;;;;;5124936;28;20199;-35
2021/03/16 12:34:42;;;;;;;14.93;13.02;;;1.20;99.90;;;;;;5125188;28;20256;-35
2021/03/16 12:37:12;;;;;;;16.52;12.63;;;1.20;99.90;;;;;;5123817;28;20557;-36
2021/03/16 12:39:44;;;;;;;14.95;13.45;;;1.20;99.90;;;;;;5122948;28;20654;-36
2021/03/16 12:42:14;;;;;;;17.27;14.07;;;1.20;99.90;;;;;;5122621;28;20219;-36
2021/03/16 12:44:45;;;;;;;16.20;12.95;;;1.20;99.90;;;;;;5122282;28;20196;-36
2021/03/16 12:47:15;;;;;;;17.10;13.35;;;1.20;99.90;;;;;;5124564;28;20184;-36
2021/03/16 12:49:47;;;;;;;14.18;12.68;;;1.20;99.90;;;;;;5122054;28;20196;-36
2021/03/16 12:52:18;;;;;;;14.00;12.48;;;1.20;99.90;;;;;;5123628;28;20196;-37
2021/03/16 12:54:53;;;;;;;15.25;13.65;;;1.20;99.90;;;;;;5122656;28;20209;-35
2021/03/16 12:57:23;;;;;;;19.75;13.38;;;1.30;99.90;;;;;;5122661;28;20249;-35
2021/03/16 12:59:53;;;;;;;15.48;13.85;;;1.30;99.90;;;;;;5116898;28;20709;-35
2021/03/16 13:02:23;;;;;;;15.82;12.85;;;1.30;99.90;;;;;;5123593;28;20257;-35
2021/03/16 13:05:08;;;;;;;18.80;13.38;;;1.30;99.90;;;;;;5124065;28;20184;-36
2021/03/16 13:07:38;;;;;;;13.18;11.75;;;1.40;99.90;;;;;;5122820;28;20204;-36
2021/03/16 13:10:11;;;;;;;18.38;13.80;;;1.40;99.90;;;;;;5123901;28;20203;-35
2021/03/16 13:12:41;;;;;;;15.65;13.60;;;1.40;99.90;;;;;;5122423;28;20310;-35